Time;durP1;ratioP1;P1;durP2;ratioP2;P2;SDS_P1;SDS_P2;PMS_P1;PMS_P2;Temp;Humidity;BMP_temperature;BMP_pressure;BME280_temperature;BME280_humidity;BME280_pressure;Samples;Min_cycle;Max_cycle;Signal;HPM_P1;HPM_P2
2022/07/07 00:01:22;;;;;;;3.38;2.05;;;17.60;91.50;;;;;;5032422;28;20404;-51
2022/07/07 00:03:48;;;;;;;9.13;1.65;;;17.60;91.80;;;;;;5032428;28;20030;-53
2022/07/07 00:06:13;;;;;;;4.78;2.17;;;17.50;91.90;;;;;;5032418;28;20034;-52
2022/07/07 00:08:39;;;;;;;7.72;1.95;;;17.50;91.90;;;;;;5047685;28;20033;-52
2022/07/07 00:11:04;;;;;;;8.88;1.90;;;17.50;92.10;;;;;;5052264;28;20048;-55
2022/07/07 00:13:30;;;;;;;6.70;2.40;;;17.50;92.20;;;;;;5034578;28;20047;-53
2022/07/07 00:15:56;;;;;;;5.35;1.73;;;17.50;92.10;;;;;;5051406;28;20052;-51
2022/07/07 00:18:21;;;;;;;3.05;1.63;;;17.50;92.10;;;;;;5035955;28;20464;-54
2022/07/07 00:20:47;;;;;;;5.50;1.73;;;17.50;92.10;;;;;;5031953;28;20033;-51
2022/07/07 00:23:12;;;;;;;1.88;1.70;;;17.50;92.20;;;;;;5032200;28;20047;-54
2022/07/07 00:25:38;;;;;;;4.18;1.88;;;17.50;92.20;;;;;;5032032;28;20029;-54
2022/07/07 00:28:03;;;;;;;2.83;1.80;;;17.50;92.30;;;;;;5042048;28;20041;-55
2022/07/07 00:30:29;;;;;;;4.60;1.85;;;17.50;92.30;;;;;;5051854;28;20033;-52
2022/07/07 00:32:54;;;;;;;2.17;1.60;;;17.40;92.30;;;;;;5051897;28;20108;-51
2022/07/07 00:35:20;;;;;;;4.55;1.88;;;17.50;92.40;;;;;;5043922;28;20051;-53
2022/07/07 00:37:45;;;;;;;3.15;1.70;;;17.40;92.40;;;;;;5038912;28;20024;-46
2022/07/07 00:40:11;;;;;;;4.15;1.73;;;17.40;92.30;;;;;;5033653;28;20111;-50
2022/07/07 00:42:37;;;;;;;4.28;2.15;;;17.30;92.50;;;;;;5051293;28;20425;-47
2022/07/07 00:45:03;;;;;;;5.45;2.22;;;17.30;92.70;;;;;;5033507;28;20488;-50
2022/07/07 00:47:30;;;;;;;6.93;2.35;;;17.20;92.90;;;;;;5044327;28;20030;-50
2022/07/07 00:49:56;;;;;;;5.13;2.22;;;17.20;92.90;;;;;;5013593;28;20112;-48
2022/07/07 00:52:22;;;;;;;8.70;5.20;;;17.30;93.10;;;;;;5050388;28;20118;-47
2022/07/07 00:54:53;;;;;;;3.67;2.30;;;17.20;93.10;;;;;;5051566;28;20496;-51
2022/07/07 00:57:18;;;;;;;9.20;1.80;;;17.20;93.00;;;;;;5046588;28;20033;-52
2022/07/07 00:59:44;;;;;;;1.90;1.73;;;17.20;93.10;;;;;;5031748;28;20366;-51
2022/07/07 01:02:09;;;;;;;6.25;2.33;;;17.10;93.30;;;;;;5031316;28;20495;-51
2022/07/07 01:04:35;;;;;;;7.80;2.92;;;17.10;93.50;;;;;;5031577;28;20109;-52
2022/07/07 01:07:01;;;;;;;4.07;2.10;;;17.10;93.70;;;;;;5031633;28;20033;-52
2022/07/07 01:09:27;;;;;;;2.45;1.77;;;17.10;93.60;;;;;;5051433;28;20029;-49
2022/07/07 01:11:55;;;;;;;6.00;2.00;;;17.00;93.60;;;;;;5050879;28;20025;-52
2022/07/07 01:14:22;;;;;;;11.48;2.25;;;17.00;93.80;;;;;;5051361;28;20025;-50
2022/07/07 01:16:48;;;;;;;2.97;1.88;;;17.00;93.90;;;;;;5013470;28;20038;-50
2022/07/07 01:19:14;;;;;;;3.30;2.10;;;17.00;94.00;;;;;;5032124;28;20021;-53
2022/07/07 01:21:54;;;;;;;2.33;1.77;;;17.00;94.00;;;;;;5050723;28;20120;-52
2022/07/07 01:24:27;;;;;;;5.63;1.50;;;17.00;94.10;;;;;;5034216;28;20057;-54
2022/07/07 01:27:07;;;;;;;4.78;1.83;;;17.00;93.90;;;;;;5030365;28;20032;-49
2022/07/07 01:29:41;;;;;;;6.35;1.70;;;17.00;93.90;;;;;;5049397;28;20032;-52
2022/07/07 01:32:08;;;;;;;10.10;1.75;;;17.00;94.20;;;;;;5050968;28;20048;-54
2022/07/07 01:34:37;;;;;;;3.78;1.45;;;16.90;94.20;;;;;;5075969;23;20477;-48
2022/07/07 01:37:04;;;;;;;2.80;1.40;;;17.00;94.20;;;;;;5049681;28;20115;-51
2022/07/07 01:39:29;;;;;;;2.83;1.65;;;16.90;94.50;;;;;;5051047;28;20399;-45
2022/07/07 01:41:55;;;;;;;4.05;1.60;;;17.00;94.70;;;;;;5051078;28;20100;-50
2022/07/07 01:44:21;;;;;;;2.13;1.60;;;16.90;94.60;;;;;;5036873;28;20021;-50
2022/07/07 01:46:46;;;;;;;5.97;1.77;;;16.90;94.70;;;;;;5029224;28;20030;-49
2022/07/07 01:49:12;;;;;;;2.47;1.52;;;17.00;94.90;;;;;;5030615;28;20030;-50
2022/07/07 01:51:39;;;;;;;7.07;1.75;;;17.00;95.00;;;;;;5030771;28;20029;-45
2022/07/07 01:54:04;;;;;;;5.55;1.98;;;17.10;95.10;;;;;;5030752;28;20092;-52
2022/07/07 01:56:30;;;;;;;4.38;2.03;;;17.10;95.40;;;;;;5029316;28;20029;-51
2022/07/07 01:58:56;;;;;;;2.72;1.50;;;17.10;95.60;;;;;;5032412;28;20037;-52
2022/07/07 02:01:21;;;;;;;3.22;1.88;;;17.20;95.70;;;;;;5035185;28;20124;-43
2022/07/07 02:03:47;;;;;;;4.43;2.08;;;17.10;95.90;;;;;;5034782;28;20473;-44
2022/07/07 02:06:12;;;;;;;7.88;2.30;;;17.10;96.20;;;;;;5034773;28;20033;-50
2022/07/07 02:08:38;;;;;;;6.00;1.92;;;17.00;96.50;;;;;;5033887;28;20026;-51
2022/07/07 02:11:12;;;;;;;3.72;2.63;;;17.00;96.70;;;;;;5034817;28;20037;-49
2022/07/07 02:13:39;;;;;;;4.17;2.13;;;16.90;97.00;;;;;;5034570;28;20033;-44
2022/07/07 02:16:05;;;;;;;5.80;2.15;;;16.90;97.20;;;;;;5034349;28;20032;-52
2022/07/07 02:18:34;;;;;;;5.93;2.30;;;16.90;97.10;;;;;;5015801;28;20029;-53
2022/07/07 02:21:00;;;;;;;6.18;2.40;;;16.90;97.30;;;;;;5034282;28;20021;-49
2022/07/07 02:23:26;;;;;;;4.60;1.98;;;16.80;97.40;;;;;;5034323;28;20036;-47
2022/07/07 02:25:51;;;;;;;2.65;1.92;;;16.80;97.70;;;;;;5034150;28;20029;-44
2022/07/07 02:28:19;;;;;;;10.20;2.10;;;16.80;97.60;;;;;;5015461;28;20064;-50
2022/07/07 02:30:44;;;;;;;3.90;1.90;;;16.80;97.90;;;;;;5034443;28;20025;-52
2022/07/07 02:33:10;;;;;;;8.45;2.33;;;16.70;98.00;;;;;;5033898;28;20112;-50
2022/07/07 02:35:36;;;;;;;8.90;2.40;;;16.70;98.20;;;;;;5034114;28;20057;-51
2022/07/07 02:38:01;;;;;;;8.48;2.33;;;16.70;98.30;;;;;;5015609;28;20064;-47
2022/07/07 02:40:27;;;;;;;4.28;2.42;;;16.80;98.40;;;;;;5033981;28;20021;-49
2022/07/07 02:42:52;;;;;;;6.70;2.40;;;16.70;98.80;;;;;;5034015;28;20025;-49
2022/07/07 02:45:17;;;;;;;7.43;2.53;;;16.70;98.90;;;;;;5033750;28;20052;-52
2022/07/07 02:47:43;;;;;;;2.83;2.20;;;16.60;98.90;;;;;;5032755;28;20080;-46
2022/07/07 02:50:09;;;;;;;3.95;2.60;;;16.60;99.00;;;;;;5033476;28;20093;-50
2022/07/07 02:52:34;;;;;;;3.03;2.28;;;16.60;99.00;;;;;;5015314;28;20477;-53
2022/07/07 02:55:00;;;;;;;6.85;2.15;;;16.50;99.10;;;;;;5033464;28;20034;-51
2022/07/07 02:57:25;;;;;;;7.30;2.30;;;16.50;99.10;;;;;;5013869;28;20068;-47
2022/07/07 02:59:51;;;;;;;4.20;2.25;;;16.50;99.00;;;;;;5033720;28;20048;-49
2022/07/07 03:02:16;;;;;;;9.13;2.33;;;16.50;99.10;;;;;;5033593;28;20034;-50
2022/07/07 03:04:42;;;;;;;7.65;2.40;;;16.40;99.10;;;;;;5033485;28;20029;-49
2022/07/07 03:07:08;;;;;;;5.93;2.50;;;16.40;99.10;;;;;;5032500;28;20565;-50
2022/07/07 03:09:33;;;;;;;4.93;2.47;;;16.40;99.20;;;;;;5032865;28;20485;-54
2022/07/07 03:11:59;;;;;;;4.60;2.38;;;16.40;99.20;;;;;;5033473;28;20489;-52
2022/07/07 03:14:24;;;;;;;3.60;2.70;;;16.40;99.10;;;;;;5033474;28;20497;-50
2022/07/07 03:16:50;;;;;;;6.38;3.10;;;16.40;99.20;;;;;;5032140;28;20044;-50
2022/07/07 03:19:16;;;;;;;5.93;2.80;;;16.40;99.30;;;;;;5033011;28;20068;-53
2022/07/07 03:21:41;;;;;;;6.32;3.03;;;16.40;99.30;;;;;;5032913;28;20096;-51
2022/07/07 03:24:07;;;;;;;15.77;2.70;;;16.40;99.30;;;;;;5033189;28;20013;-46
2022/07/07 03:26:33;;;;;;;7.20;2.60;;;16.40;99.30;;;;;;5033116;28;20021;-48
2022/07/07 03:28:58;;;;;;;4.82;3.03;;;16.40;99.30;;;;;;5030806;28;20112;-50
2022/07/07 03:31:24;;;;;;;4.15;2.28;;;16.40;99.40;;;;;;5016613;28;20117;-51
2022/07/07 03:33:49;;;;;;;7.15;3.08;;;16.40;99.50;;;;;;5013068;28;20103;-49
2022/07/07 03:36:15;;;;;;;4.70;2.85;;;16.50;99.50;;;;;;5013198;28;20026;-48
2022/07/07 03:38:40;;;;;;;9.00;2.85;;;16.50;99.50;;;;;;4995932;28;20490;-52
2022/07/07 03:41:06;;;;;;;5.07;3.17;;;16.50;99.50;;;;;;5020784;28;20121;-53
2022/07/07 03:43:31;;;;;;;3.72;2.60;;;16.50;99.50;;;;;;5032648;28;20029;-49
2022/07/07 03:45:57;;;;;;;5.15;3.22;;;16.50;99.40;;;;;;5032576;28;20037;-50
2022/07/07 03:48:22;;;;;;;7.13;2.72;;;16.60;99.40;;;;;;5030268;28;20038;-49
2022/07/07 03:50:48;;;;;;;7.05;2.78;;;16.60;99.50;;;;;;5014965;28;20405;-50
2022/07/07 03:53:13;;;;;;;6.10;2.38;;;16.70;99.40;;;;;;5029196;28;20488;-50
2022/07/07 03:55:39;;;;;;;7.53;2.55;;;16.70;99.30;;;;;;5032449;28;20052;-52
2022/07/07 03:58:04;;;;;;;7.20;2.85;;;16.80;99.20;;;;;;5031941;28;20033;-50
2022/07/07 04:00:30;;;;;;;4.03;2.63;;;16.80;99.10;;;;;;5024627;28;20486;-49
2022/07/07 04:02:55;;;;;;;4.60;2.42;;;16.90;99.10;;;;;;5017717;28;20079;-50
2022/07/07 04:05:21;;;;;;;5.10;2.50;;;16.90;99.00;;;;;;5031563;28;20436;-48
2022/07/07 04:07:47;;;;;;;5.00;2.50;;;16.80;99.20;;;;;;5027703;28;20025;-48
2022/07/07 04:10:12;;;;;;;3.33;2.67;;;16.80;99.30;;;;;;5012637;28;20024;-53
2022/07/07 04:12:38;;;;;;;3.63;2.30;;;16.80;99.40;;;;;;5026496;28;20032;-50
2022/07/07 04:15:04;;;;;;;3.33;2.40;;;16.80;99.60;;;;;;5031857;28;20041;-52
2022/07/07 04:17:29;;;;;;;7.18;2.40;;;16.90;99.20;;;;;;5031195;28;20087;-50
2022/07/07 04:19:55;;;;;;;5.35;3.28;;;16.80;99.50;;;;;;5032715;28;20022;-50
2022/07/07 04:22:20;;;;;;;8.57;2.85;;;16.80;99.60;;;;;;5029494;28;20037;-50
2022/07/07 04:24:46;;;;;;;6.75;2.65;;;16.90;99.60;;;;;;5031989;28;20021;-53
2022/07/07 04:27:12;;;;;;;3.28;2.63;;;16.90;99.40;;;;;;5031456;28;20029;-54
2022/07/07 04:29:37;;;;;;;5.93;2.55;;;16.90;99.60;;;;;;5032082;28;20026;-52
2022/07/07 04:32:04;;;;;;;7.05;2.70;;;16.80;99.60;;;;;;5030683;28;20075;-52
2022/07/07 04:34:29;;;;;;;4.85;2.40;;;16.80;99.70;;;;;;5031568;28;20034;-53
2022/07/07 04:36:55;;;;;;;7.93;3.92;;;16.90;99.60;;;;;;5030928;28;20033;-51
2022/07/07 04:39:21;;;;;;;3.83;2.60;;;16.90;99.50;;;;;;5023221;28;20022;-52
2022/07/07 04:41:46;;;;;;;17.88;3.58;;;16.80;99.50;;;;;;5018098;28;20490;-50
2022/07/07 04:44:12;;;;;;;9.63;2.67;;;16.90;99.50;;;;;;5031799;28;20022;-49
2022/07/07 04:46:38;;;;;;;7.57;2.70;;;16.90;99.50;;;;;;5031805;28;20520;-50
2022/07/07 04:49:03;;;;;;;10.13;2.92;;;16.90;99.40;;;;;;5031083;28;20424;-48
2022/07/07 04:51:29;;;;;;;9.65;3.10;;;16.90;99.30;;;;;;5031597;28;20033;-43
2022/07/07 04:53:55;;;;;;;11.55;3.03;;;16.90;99.30;;;;;;5031525;28;20052;-47
2022/07/07 04:56:21;;;;;;;6.97;2.60;;;17.00;99.20;;;;;;5026797;28;20026;-48
2022/07/07 04:58:46;;;;;;;5.47;2.40;;;17.00;99.30;;;;;;5030346;28;20109;-46
2022/07/07 05:01:11;;;;;;;4.30;3.08;;;17.00;99.20;;;;;;5030312;28;20053;-50
2022/07/07 05:03:37;;;;;;;6.72;2.95;;;17.00;99.20;;;;;;5026916;28;20033;-53
2022/07/07 05:06:03;;;;;;;7.38;2.53;;;17.10;99.30;;;;;;5031163;28;20087;-49
2022/07/07 05:08:30;;;;;;;5.35;2.75;;;17.10;98.90;;;;;;5030411;28;20425;-47
2022/07/07 05:10:55;;;;;;;12.10;2.80;;;17.20;98.80;;;;;;5031362;28;20028;-49
2022/07/07 05:13:21;;;;;;;7.43;2.70;;;17.20;98.60;;;;;;5029888;28;20025;-48
2022/07/07 05:15:48;;;;;;;7.70;2.95;;;17.30;98.60;;;;;;5030757;28;20037;-52
2022/07/07 05:18:14;;;;;;;3.33;2.60;;;17.30;98.60;;;;;;5026200;28;20386;-50
2022/07/07 05:20:40;;;;;;;5.25;2.63;;;17.40;98.40;;;;;;5010006;28;20114;-50
2022/07/07 05:23:05;;;;;;;11.07;3.35;;;17.50;98.40;;;;;;5011406;28;20591;-48
2022/07/07 05:25:31;;;;;;;3.42;2.40;;;17.60;98.10;;;;;;5021967;28;20029;-51
2022/07/07 05:27:56;;;;;;;2.47;2.10;;;17.70;98.00;;;;;;5025345;28;20058;-51
2022/07/07 05:30:22;;;;;;;3.80;2.60;;;17.70;97.90;;;;;;5011465;28;20054;-52
2022/07/07 05:32:47;;;;;;;7.05;2.75;;;17.80;98.00;;;;;;5015768;28;20109;-51
2022/07/07 05:35:13;;;;;;;8.45;2.17;;;18.10;97.90;;;;;;5028783;28;20375;-49
2022/07/07 05:37:41;;;;;;;4.00;2.50;;;18.50;96.40;;;;;;5034294;28;20025;-49
2022/07/07 05:40:07;;;;;;;8.73;2.47;;;18.70;96.30;;;;;;5033991;28;20022;-48
2022/07/07 05:42:33;;;;;;;4.97;2.08;;;18.80;95.70;;;;;;5035132;28;20032;-49
2022/07/07 05:44:58;;;;;;;4.97;2.45;;;18.80;95.60;;;;;;5017215;28;20022;-51
2022/07/07 05:47:24;;;;;;;4.18;1.90;;;18.60;96.10;;;;;;5033930;28;20033;-52
2022/07/07 05:49:50;;;;;;;2.33;2.13;;;18.50;96.20;;;;;;5034799;28;20034;-50
2022/07/07 05:52:15;;;;;;;5.13;2.33;;;18.40;96.30;;;;;;5034015;28;20036;-53
2022/07/07 05:54:41;;;;;;;6.05;2.40;;;18.20;96.90;;;;;;5034669;28;20500;-51
2022/07/07 05:57:07;;;;;;;3.08;2.08;;;18.10;97.20;;;;;;5033833;28;20075;-50
2022/07/07 05:59:33;;;;;;;9.48;2.33;;;18.00;97.50;;;;;;5034619;28;20103;-51
2022/07/07 06:01:58;;;;;;;3.97;2.40;;;17.90;98.00;;;;;;5034803;28;20022;-52
2022/07/07 06:04:26;;;;;;;5.82;2.15;;;17.80;98.20;;;;;;5035240;28;20094;-50
2022/07/07 06:06:52;;;;;;;5.22;2.25;;;17.80;98.40;;;;;;5034040;28;20030;-48
2022/07/07 06:09:18;;;;;;;3.20;2.00;;;17.80;98.70;;;;;;5034606;28;20026;-54
2022/07/07 06:11:43;;;;;;;3.25;2.13;;;17.80;98.80;;;;;;5034661;28;20022;-48
2022/07/07 06:14:09;;;;;;;7.75;2.22;;;17.80;99.00;;;;;;5017803;28;20500;-58
2022/07/07 06:16:38;;;;;;;6.40;2.05;;;17.80;99.00;;;;;;5035923;28;20111;-47
2022/07/07 06:19:12;;;;;;;7.32;2.03;;;17.80;99.10;;;;;;5034331;28;20032;-55
2022/07/07 06:21:38;;;;;;;7.18;2.10;;;17.80;99.10;;;;;;5034467;28;20067;-52
2022/07/07 06:24:04;;;;;;;4.88;2.35;;;17.90;99.00;;;;;;5034125;28;20030;-52
2022/07/07 06:26:30;;;;;;;4.63;2.10;;;17.90;98.90;;;;;;5034166;28;20037;-48
2022/07/07 06:28:55;;;;;;;3.08;2.00;;;17.90;99.10;;;;;;5033437;28;20389;-53
2022/07/07 06:31:21;;;;;;;4.00;1.88;;;18.00;98.90;;;;;;5034008;28;20038;-50
2022/07/07 06:33:47;;;;;;;2.50;1.73;;;18.00;98.70;;;;;;5034046;28;20048;-55
2022/07/07 06:36:12;;;;;;;5.18;1.80;;;18.10;98.30;;;;;;5033816;28;20374;-53
2022/07/07 06:38:38;;;;;;;4.68;2.17;;;18.10;98.40;;;;;;5033289;28;20029;-52
2022/07/07 06:41:03;;;;;;;5.18;1.98;;;18.20;98.20;;;;;;5033673;28;20107;-51
2022/07/07 06:43:29;;;;;;;5.90;1.80;;;18.20;98.40;;;;;;5033888;28;20377;-47
2022/07/07 06:45:54;;;;;;;8.95;4.03;;;18.20;98.70;;;;;;5032734;28;20591;-48
2022/07/07 06:48:20;;;;;;;3.10;2.00;;;18.10;99.20;;;;;;5033271;28;20025;-54
2022/07/07 06:50:46;;;;;;;6.57;2.40;;;18.20;99.40;;;;;;5014222;28;20076;-49
2022/07/07 06:53:12;;;;;;;3.50;1.75;;;18.20;99.10;;;;;;5033649;28;20120;-51
2022/07/07 06:55:37;;;;;;;7.88;2.28;;;18.20;99.00;;;;;;5032890;28;20111;-43
2022/07/07 06:58:03;;;;;;;6.85;1.77;;;18.20;98.80;;;;;;5030273;28;20105;-46
2022/07/07 07:00:30;;;;;;;3.90;1.80;;;18.30;98.70;;;;;;5033518;28;20329;-49
2022/07/07 07:02:56;;;;;;;2.83;1.80;;;18.30;98.90;;;;;;5029676;28;20036;-50
2022/07/07 07:05:22;;;;;;;6.57;1.70;;;18.30;98.80;;;;;;5033976;28;20029;-52
2022/07/07 07:07:48;;;;;;;5.97;2.25;;;18.40;98.70;;;;;;5029737;28;20096;-50
2022/07/07 07:10:14;;;;;;;6.80;2.10;;;18.40;98.40;;;;;;5029449;28;20113;-52
2022/07/07 07:12:39;;;;;;;4.60;2.20;;;18.50;98.50;;;;;;5028259;28;20456;-48
2022/07/07 07:15:08;;;;;;;3.95;2.05;;;18.50;98.60;;;;;;5032920;28;20032;-47
2022/07/07 07:17:34;;;;;;;2.40;1.88;;;18.60;98.50;;;;;;5032017;28;20103;-47
2022/07/07 07:19:59;;;;;;;4.25;2.33;;;18.70;98.50;;;;;;5014549;28;20030;-50
2022/07/07 07:22:25;;;;;;;3.92;1.83;;;18.70;98.60;;;;;;5026420;28;20068;-48
2022/07/07 07:24:51;;;;;;;10.38;2.20;;;18.80;98.60;;;;;;5032599;28;20029;-48
2022/07/07 07:27:17;;;;;;;4.80;2.45;;;18.90;98.60;;;;;;5012257;28;20030;-49
2022/07/07 07:29:42;;;;;;;8.35;2.00;;;19.00;98.60;;;;;;5013121;28;20109;-50
2022/07/07 07:32:08;;;;;;;5.95;2.25;;;19.00;98.60;;;;;;5012939;28;20478;-50
2022/07/07 07:34:33;;;;;;;5.28;2.22;;;19.00;98.70;;;;;;5041800;22;20056;-45
2022/07/07 07:37:00;;;;;;;5.45;1.88;;;19.20;99.00;;;;;;5031158;28;20036;-46
2022/07/07 07:39:26;;;;;;;5.57;1.92;;;19.20;98.60;;;;;;5014444;28;20088;-47
2022/07/07 07:41:51;;;;;;;4.38;1.90;;;19.30;98.70;;;;;;5012180;28;20025;-48
2022/07/07 07:45:09;;;;;;;2.92;1.75;;;19.30;99.10;;;;;;5013083;28;20029;-49
2022/07/07 07:47:03;;;;;;;5.80;2.00;;;19.30;99.60;;;;;;5016098;28;20033;-51
2022/07/07 07:49:28;;;;;;;7.85;2.90;;;19.30;99.60;;;;;;5023690;28;20033;-49
2022/07/07 07:51:54;;;;;;;4.18;2.00;;;19.30;99.70;;;;;;5036295;28;20045;-49
2022/07/07 07:54:20;;;;;;;4.63;2.78;;;19.40;99.80;;;;;;5034208;28;20026;-49
2022/07/07 07:56:45;;;;;;;4.63;1.90;;;19.40;99.70;;;;;;5016248;28;20302;-54
2022/07/07 07:59:11;;;;;;;7.93;2.30;;;19.40;99.90;;;;;;5032393;28;20034;-51
2022/07/07 08:01:36;;;;;;;6.28;2.17;;;19.40;99.90;;;;;;5032977;28;20412;-54
2022/07/07 08:04:02;;;;;;;4.75;1.88;;;19.50;99.90;;;;;;5032253;28;20389;-46
2022/07/07 08:06:28;;;;;;;3.97;1.90;;;19.40;99.90;;;;;;5032243;28;20025;-49
2022/07/07 08:08:53;;;;;;;2.13;1.88;;;19.40;99.90;;;;;;5030440;28;20072;-47
2022/07/07 08:11:19;;;;;;;6.38;2.13;;;19.40;99.90;;;;;;5032314;28;20033;-47
2022/07/07 08:13:44;;;;;;;1.90;1.70;;;19.40;99.90;;;;;;5032071;28;20478;-46
2022/07/07 08:16:10;;;;;;;5.57;1.67;;;19.50;99.90;;;;;;5032050;28;20068;-42
2022/07/07 08:18:36;;;;;;;2.28;2.05;;;19.60;99.90;;;;;;5013922;28;20025;-44
2022/07/07 08:21:01;;;;;;;6.78;1.70;;;19.70;99.90;;;;;;5030449;28;20037;-47
2022/07/07 08:23:27;;;;;;;2.80;1.85;;;19.80;99.90;;;;;;5032460;28;20027;-44
2022/07/07 08:25:52;;;;;;;6.82;2.03;;;19.90;99.90;;;;;;5032328;28;20444;-48
2022/07/07 08:28:18;;;;;;;5.70;1.80;;;20.00;99.90;;;;;;5031737;28;20350;-46
2022/07/07 08:30:43;;;;;;;6.10;1.98;;;20.20;99.80;;;;;;5032066;28;20029;-46
2022/07/07 08:33:09;;;;;;;2.08;1.60;;;20.30;99.90;;;;;;5032046;28;20045;-46
2022/07/07 08:35:34;;;;;;;6.25;2.10;;;20.30;99.80;;;;;;5031790;28;20033;-47
2022/07/07 08:38:00;;;;;;;7.10;1.63;;;20.40;99.70;;;;;;5031917;28;20017;-43
2022/07/07 08:40:26;;;;;;;7.00;1.73;;;20.50;99.80;;;;;;5032130;28;20029;-44
2022/07/07 08:42:52;;;;;;;5.93;1.90;;;20.70;99.50;;;;;;5032223;28;20025;-46
2022/07/07 08:45:17;;;;;;;2.65;1.70;;;20.70;98.80;;;;;;5032079;28;20064;-46
2022/07/07 08:47:44;;;;;;;4.55;2.03;;;20.70;98.90;;;;;;5031165;28;20106;-46
2022/07/07 08:50:09;;;;;;;6.22;2.60;;;20.80;98.90;;;;;;5031812;28;20025;-44
2022/07/07 08:52:35;;;;;;;4.05;1.60;;;20.80;99.10;;;;;;5031770;28;20033;-45
2022/07/07 08:55:01;;;;;;;2.50;1.58;;;20.70;99.00;;;;;;5031572;28;20151;-44
2022/07/07 08:57:27;;;;;;;2.25;1.90;;;20.70;99.40;;;;;;5030995;28;20061;-44
2022/07/07 08:59:56;;;;;;;3.20;1.35;;;20.60;99.30;;;;;;5031652;28;20575;-45
2022/07/07 09:02:24;;;;;;;3.03;1.63;;;20.50;99.40;;;;;;5031908;28;20028;-46
2022/07/07 09:04:51;;;;;;;2.92;1.50;;;20.50;99.60;;;;;;5031585;28;20500;-46
2022/07/07 09:07:18;;;;;;;1.65;1.55;;;20.40;99.70;;;;;;5030685;28;20022;-44
2022/07/07 09:09:52;;;;;;;1.77;1.20;;;20.40;99.80;;;;;;5031392;28;20026;-46
2022/07/07 09:12:18;;;;;;;13.35;1.60;;;20.40;99.90;;;;;;5031670;28;20056;-46
2022/07/07 09:14:44;;;;;;;1.50;1.40;;;20.40;99.90;;;;;;5031481;28;20065;-47
2022/07/07 09:17:29;;;;;;;1.30;1.15;;;20.50;99.90;;;;;;5030960;28;20060;-47
2022/07/07 09:20:00;;;;;;;5.17;1.53;;;20.60;99.70;;;;;;5032108;28;20025;-43
2022/07/07 09:22:55;;;;;;;6.63;1.60;;;20.70;99.60;;;;;;5031371;28;20022;-47
2022/07/07 09:25:25;;;;;;;5.05;1.42;;;20.80;99.60;;;;;;5013671;28;20025;-44
2022/07/07 09:27:58;;;;;;;1.50;1.40;;;20.70;99.60;;;;;;5031227;28;20029;-44
2022/07/07 09:30:37;;;;;;;3.42;1.90;;;20.80;99.60;;;;;;5031757;28;20391;-47
2022/07/07 09:33:23;;;;;;;5.03;1.65;;;20.80;99.80;;;;;;5031928;28;20029;-46
2022/07/07 09:38:37;;;;;;;2.15;1.52;;;21.00;98.70;;;;;;5033313;28;20074;-46
2022/07/07 09:41:12;;;;;;;5.38;1.30;;;21.00;99.20;;;;;;5034212;28;20205;-43
2022/07/07 09:43:48;;;;;;;1.88;1.70;;;20.70;99.90;;;;;;5032144;28;20100;-48
2022/07/07 09:46:26;;;;;;;4.85;1.50;;;20.40;99.90;;;;;;5034334;28;20439;-44
2022/07/07 09:48:57;;;;;;;8.48;1.30;;;20.10;99.90;;;;;;5031384;28;20025;-48
2022/07/07 09:51:24;;;;;;;1.73;1.50;;;19.90;99.90;;;;;;5032698;28;20432;-49
2022/07/07 09:53:53;;;;;;;1.20;1.17;;;19.70;99.90;;;;;;5033695;28;20027;-48
2022/07/07 09:56:24;;;;;;;5.45;1.20;;;19.70;99.90;;;;;;5032493;28;20111;-44
2022/07/07 09:58:50;;;;;;;1.00;1.00;;;19.60;99.90;;;;;;5030122;28;20021;-49
2022/07/07 10:01:17;;;;;;;0.98;0.90;;;19.60;99.90;;;;;;5013326;28;20417;-45
2022/07/07 10:03:43;;;;;;;3.72;1.27;;;19.50;99.90;;;;;;5031283;28;20032;-50
2022/07/07 10:06:12;;;;;;;1.25;0.90;;;19.40;99.90;;;;;;5031488;28;20108;-47
2022/07/07 10:08:45;;;;;;;1.77;1.60;;;19.30;99.90;;;;;;5031884;28;20069;-45
2022/07/07 10:11:13;;;;;;;1.40;1.30;;;19.30;99.90;;;;;;5032303;28;20109;-45
2022/07/07 10:13:43;;;;;;;1.77;1.45;;;19.30;99.90;;;;;;5031498;28;20029;-47
2022/07/07 10:16:09;;;;;;;1.50;1.40;;;19.40;99.90;;;;;;5031071;28;20021;-48
2022/07/07 10:18:35;;;;;;;1.70;1.60;;;19.40;99.90;;;;;;5030782;28;20036;-49
2022/07/07 10:21:02;;;;;;;3.42;1.42;;;19.50;99.90;;;;;;5031894;28;20036;-47
2022/07/07 10:23:32;;;;;;;2.90;1.98;;;19.70;99.90;;;;;;5034789;28;20096;-47
2022/07/07 10:26:06;;;;;;;3.17;1.20;;;19.70;99.90;;;;;;5034349;28;20025;-48
2022/07/07 10:28:52;;;;;;;1.95;1.80;;;19.90;99.90;;;;;;5033988;28;20036;-48
2022/07/07 10:31:28;;;;;;;1.10;0.98;;;20.00;99.90;;;;;;5034747;28;20036;-47
2022/07/07 10:33:55;;;;;;;2.88;1.15;;;20.30;99.90;;;;;;5035202;28;20056;-44
2022/07/07 10:36:21;;;;;;;1.70;1.17;;;20.50;99.90;;;;;;5035751;28;20095;-44
2022/07/07 10:38:51;;;;;;;1.48;1.38;;;20.60;99.90;;;;;;5033939;28;20477;-44
2022/07/07 10:41:25;;;;;;;0.90;0.90;;;20.90;99.90;;;;;;5034657;28;20025;-45
2022/07/07 10:44:05;;;;;;;4.43;1.40;;;21.00;99.90;;;;;;5034521;28;20057;-46
2022/07/07 10:46:33;;;;;;;0.98;0.98;;;21.20;99.90;;;;;;5034504;28;20079;-45
2022/07/07 10:49:11;;;;;;;1.55;1.05;;;21.30;99.80;;;;;;5033948;28;20029;-46
2022/07/07 10:51:55;;;;;;;1.00;1.00;;;21.40;99.30;;;;;;5033277;28;20029;-48
2022/07/07 10:54:39;;;;;;;3.10;1.00;;;21.40;99.40;;;;;;5022086;28;20144;-54
2022/07/07 10:57:08;;;;;;;3.97;0.98;;;21.50;99.80;;;;;;5033008;28;20382;-53
2022/07/07 10:59:58;;;;;;;0.98;0.98;;;21.60;99.50;;;;;;5033931;28;20017;-51
2022/07/07 11:02:51;;;;;;;1.75;0.93;;;21.70;99.30;;;;;;5030891;28;20025;-51
2022/07/07 11:05:17;;;;;;;3.33;1.27;;;21.60;99.20;;;;;;5023409;28;20028;-52
2022/07/07 11:08:06;;;;;;;3.40;3.10;;;21.40;99.60;;;;;;5033177;28;20021;-56
2022/07/07 11:10:50;;;;;;;1.13;0.98;;;21.30;99.80;;;;;;5033110;28;20030;-51
2022/07/07 11:13:35;;;;;;;1.73;0.98;;;21.10;99.90;;;;;;5033575;28;20032;-50
2022/07/07 11:16:19;;;;;;;2.90;2.65;;;20.90;99.90;;;;;;5034053;28;20056;-49
2022/07/07 11:19:04;;;;;;;3.20;0.65;;;20.70;99.90;;;;;;5014064;28;20484;-52
2022/07/07 11:21:38;;;;;;;0.90;0.80;;;20.50;98.50;;;;;;5032088;28;20441;-51
2022/07/07 11:24:16;;;;;;;4.35;1.05;;;20.50;98.20;;;;;;5033416;28;20025;-55
2022/07/07 11:26:42;;;;;;;1.35;0.60;;;20.40;98.30;;;;;;5033445;28;20496;-51
2022/07/07 11:29:10;;;;;;;5.10;0.60;;;20.40;98.20;;;;;;5045651;28;20110;-55
2022/07/07 11:31:35;;;;;;;3.70;0.52;;;20.30;98.60;;;;;;5044329;28;20022;-51
2022/07/07 11:34:01;;;;;;;0.95;0.40;;;20.40;98.30;;;;;;5033260;28;20144;-53
2022/07/07 11:36:29;;;;;;;0.57;0.40;;;20.60;97.80;;;;;;5032806;28;20038;-56
2022/07/07 11:39:00;;;;;;;3.65;0.40;;;20.80;97.60;;;;;;5032103;28;20100;-54
2022/07/07 11:41:39;;;;;;;3.00;1.00;;;21.00;97.50;;;;;;5014844;28;20018;-55
2022/07/07 11:44:04;;;;;;;0.40;0.40;;;21.10;97.50;;;;;;5032399;28;20024;-55
2022/07/07 11:46:30;;;;;;;0.38;0.30;;;21.20;97.20;;;;;;5014627;28;20021;-53
2022/07/07 11:48:55;;;;;;;0.50;0.50;;;21.20;97.00;;;;;;5031909;28;20045;-56
2022/07/07 11:51:29;;;;;;;1.25;0.50;;;21.30;96.60;;;;;;5032311;28;20037;-53
2022/07/07 11:53:57;;;;;;;2.58;0.52;;;21.40;95.70;;;;;;5032213;28;20489;-56
2022/07/07 11:56:33;;;;;;;3.17;2.05;;;21.40;95.30;;;;;;5032008;28;20316;-51
2022/07/07 11:58:59;;;;;;;42.30;31.20;;;21.60;94.40;;;;;;5031258;28;20022;-53
2022/07/07 12:01:30;;;;;;;0.75;0.75;;;21.60;93.90;;;;;;5031854;28;20013;-53
2022/07/07 12:03:55;;;;;;;0.90;0.60;;;21.80;94.30;;;;;;5031658;28;20517;-53
2022/07/07 12:06:24;;;;;;;3.80;0.60;;;21.90;94.40;;;;;;5032109;28;20116;-49
2022/07/07 12:08:50;;;;;;;4.47;0.73;;;22.10;94.40;;;;;;5032351;28;20083;-55
2022/07/07 12:11:19;;;;;;;4.03;0.80;;;22.10;94.70;;;;;;5032194;28;20026;-55
2022/07/07 12:13:45;;;;;;;5.93;0.80;;;22.20;94.80;;;;;;5032715;28;20124;-52
2022/07/07 12:16:12;;;;;;;6.28;0.90;;;22.10;94.70;;;;;;5032988;28;20426;-56
2022/07/07 12:18:40;;;;;;;3.92;0.65;;;22.10;95.20;;;;;;5032559;28;20068;-51
2022/07/07 12:21:10;;;;;;;1.05;0.75;;;22.10;95.30;;;;;;5032773;28;20028;-51
2022/07/07 12:23:44;;;;;;;7.00;1.25;;;22.10;94.90;;;;;;5032024;28;20036;-55
2022/07/07 12:26:15;;;;;;;2.05;0.98;;;21.80;95.20;;;;;;5032407;28;20037;-49
2022/07/07 12:28:42;;;;;;;0.85;0.85;;;22.00;95.10;;;;;;5032746;28;20108;-49
2022/07/07 12:31:09;;;;;;;3.92;1.02;;;22.10;95.20;;;;;;5033896;28;20104;-48
2022/07/07 12:33:37;;;;;;;4.05;1.00;;;22.10;95.10;;;;;;5033065;28;20229;-47
2022/07/07 12:36:36;;;;;;;4.43;0.82;;;22.10;94.80;;;;;;5031866;28;20025;-48
2022/07/07 12:39:04;;;;;;;0.52;0.52;;;22.10;95.40;;;;;;5027911;28;20037;-52
2022/07/07 12:41:34;;;;;;;0.82;0.50;;;22.10;95.10;;;;;;5031492;28;20137;-50
2022/07/07 12:44:22;;;;;;;1.20;0.68;;;22.30;94.60;;;;;;5030435;28;20025;-46
2022/07/07 12:46:48;;;;;;;2.03;0.90;;;22.20;95.00;;;;;;5012797;28;20033;-50
2022/07/07 12:49:14;;;;;;;0.95;0.95;;;22.10;95.20;;;;;;5030342;28;20041;-47
2022/07/07 12:51:44;;;;;;;1.48;1.33;;;22.20;94.10;;;;;;5029943;28;20037;-49